Time,TemperatureF,DewpointF,PressureIn,WindDirection,WindDirectionDegrees,WindSpeedMPH,WindSpeedGustMPH,Humidity,HourlyPrecipIn,Conditions,Clouds,dailyrainin,SoftwareType,DateUTC
2017-12-16 00:03:00,32.2,25.5,30.13,SSW,213,1.0,3.0,76,0.00,,,0.00,VWS V15.00,2017-12-16 05:03:00,
2017-12-16 00:04:00,32.2,25.5,30.13,SSW,211,2.0,3.0,76,0.00,,,0.00,VWS V15.00,2017-12-16 05:04:00,
2017-12-16 00:09:00,32.2,25.5,30.14,South,178,1.0,2.0,76,0.00,,,0.00,VWS V15.00,2017-12-16 05:09:00,
2017-12-16 00:14:00,32.2,25.5,30.14,South,188,1.0,5.0,76,0.00,,,0.00,VWS V15.00,2017-12-16 05:14:00,
2017-12-16 00:16:00,32.2,25.5,30.13,South,171,2.0,5.0,76,0.00,,,0.00,VWS V15.00,2017-12-16 05:16:00,
2017-12-16 00:21:00,32.2,25.5,30.13,South,186,2.0,2.0,76,0.00,,,0.00,VWS V15.00,2017-12-16 05:21:00,
2017-12-16 00:26:00,32.2,25.5,30.13,SSW,200,1.0,2.0,76,0.00,,,0.00,VWS V15.00,2017-12-16 05:26:00,
2017-12-16 00:27:00,32.2,25.5,30.13,SSW,200,1.0,2.0,76,0.00,,,0.00,VWS V15.00,2017-12-16 05:27:00,
2017-12-16 00:33:00,32.1,25.4,30.13,South,189,1.0,3.0,76,0.00,,,0.00,VWS V15.00,2017-12-16 05:33:00,
2017-12-16 00:35:00,32.1,25.4,30.13,SW,234,2.0,3.0,76,0.00,,,0.00,VWS V15.00,2017-12-16 05:35:00,
2017-12-16 00:40:00,32.2,25.5,30.12,South,186,0.0,2.0,76,0.00,,,0.00,VWS V15.00,2017-12-16 05:40:00,
2017-12-16 00:45:00,32.3,25.6,30.12,SW,227,2.0,3.0,76,0.00,,,0.00,VWS V15.00,2017-12-16 05:45:00,
2017-12-16 00:46:00,32.3,25.6,30.12,SSW,194,2.0,3.0,76,0.00,,,0.00,VWS V15.00,2017-12-16 05:46:00,
2017-12-16 00:48:00,32.3,25.6,30.12,SW,223,2.0,3.0,76,0.00,,,0.00,VWS V15.00,2017-12-16 05:48:00,
2017-12-16 00:53:00,32.3,25.6,30.12,South,190,3.0,3.0,76,0.00,,,0.00,VWS V15.00,2017-12-16 05:53:00,
2017-12-16 00:55:00,32.4,25.7,30.12,SSW,201,2.0,4.0,76,0.00,,,0.00,VWS V15.00,2017-12-16 05:55:00,
2017-12-16 01:00:00,32.4,25.7,30.12,SW,222,1.0,5.0,76,0.00,,,0.00,VWS V15.00,2017-12-16 06:00:00,
2017-12-16 01:01:00,32.4,25.7,30.12,South,187,1.0,5.0,76,0.00,,,0.00,VWS V15.00,2017-12-16 06:01:00,
2017-12-16 01:06:00,32.5,25.8,30.12,South,191,3.0,5.0,76,0.00,,,0.00,VWS V15.00,2017-12-16 06:06:00,
2017-12-16 01:07:00,32.5,25.8,30.12,SSW,212,2.0,5.0,76,0.00,,,0.00,VWS V15.00,2017-12-16 06:07:00,
2017-12-16 01:12:00,32.5,25.8,30.11,SW,234,4.0,5.0,76,0.00,,,0.00,VWS V15.00,2017-12-16 06:12:00,
2017-12-16 01:16:00,32.6,25.9,30.11,SW,232,4.0,5.0,76,0.00,,,0.00,VWS V15.00,2017-12-16 06:16:00,
2017-12-16 01:17:00,32.6,25.9,30.11,SSW,208,3.0,5.0,76,0.00,,,0.00,VWS V15.00,2017-12-16 06:17:00,
2017-12-16 01:22:00,32.5,25.8,30.11,SSE,159,4.0,5.0,76,0.00,,,0.00,VWS V15.00,2017-12-16 06:22:00,
2017-12-16 01:27:00,32.4,25.7,30.11,South,171,2.0,6.0,76,0.00,,,0.00,VWS V15.00,2017-12-16 06:27:00,
2017-12-16 01:29:00,32.3,25.6,30.11,SSE,163,4.0,5.0,76,0.00,,,0.00,VWS V15.00,2017-12-16 06:29:00,
2017-12-16 01:34:00,32.3,25.6,30.11,SSW,206,3.0,6.0,76,0.00,,,0.00,VWS V15.00,2017-12-16 06:34:00,
2017-12-16 01:36:00,32.3,25.6,30.11,SSW,211,2.0,6.0,76,0.00,,,0.00,VWS V15.00,2017-12-16 06:36:00,
2017-12-16 01:40:00,32.3,25.6,30.11,SSW,213,2.0,5.0,76,0.00,,,0.00,VWS V15.00,2017-12-16 06:40:00,
2017-12-16 01:45:00,32.2,25.5,30.11,South,180,2.0,5.0,76,0.00,,,0.00,VWS V15.00,2017-12-16 06:45:00,
2017-12-16 01:50:00,32.2,25.8,30.10,SSW,192,2.0,6.0,77,0.00,,,0.00,VWS V15.00,2017-12-16 06:50:00,
2017-12-16 01:55:00,32.1,25.7,30.11,South,177,2.0,6.0,77,0.00,,,0.00,VWS V15.00,2017-12-16 06:55:00,
2017-12-16 02:00:00,32.0,25.6,30.11,SSW,193,3.0,4.0,77,0.00,,,0.00,VWS V15.00,2017-12-16 07:00:00,
2017-12-16 02:05:00,31.8,25.4,30.11,South,186,1.0,4.0,77,0.00,,,0.00,VWS V15.00,2017-12-16 07:05:00,
2017-12-16 02:10:00,31.7,25.3,30.11,South,190,1.0,4.0,77,0.00,,,0.00,VWS V15.00,2017-12-16 07:10:00,
2017-12-16 02:12:00,31.7,25.3,30.11,South,190,2.0,4.0,77,0.00,,,0.00,VWS V15.00,2017-12-16 07:12:00,
2017-12-16 02:17:00,31.6,25.2,30.11,South,182,2.0,4.0,77,0.00,,,0.00,VWS V15.00,2017-12-16 07:17:00,
2017-12-16 02:22:00,31.6,25.2,30.11,South,175,1.0,4.0,77,0.00,,,0.00,VWS V15.00,2017-12-16 07:22:00,
2017-12-16 02:25:00,31.6,25.2,30.11,South,175,1.0,4.0,77,0.00,,,0.00,VWS V15.00,2017-12-16 07:25:00,
2017-12-16 02:30:00,31.5,25.4,30.11,SSW,205,2.0,4.0,78,0.00,,,0.00,VWS V15.00,2017-12-16 07:30:00,
2017-12-16 02:31:00,31.5,25.4,30.12,SSW,193,2.0,4.0,78,0.00,,,0.00,VWS V15.00,2017-12-16 07:31:00,
2017-12-16 02:36:00,31.5,25.4,30.12,SSE,166,4.0,5.0,78,0.00,,,0.00,VWS V15.00,2017-12-16 07:36:00,
2017-12-16 02:38:00,31.5,25.4,30.12,SW,215,3.0,3.0,78,0.00,,,0.00,VWS V15.00,2017-12-16 07:38:00,
2017-12-16 02:43:00,31.5,25.4,30.12,South,186,1.0,4.0,78,0.00,,,0.00,VWS V15.00,2017-12-16 07:43:00,
2017-12-16 02:44:00,31.5,25.4,30.12,SW,223,3.0,4.0,78,0.00,,,0.00,VWS V15.00,2017-12-16 07:44:00,
2017-12-16 02:49:00,31.5,25.4,30.12,South,175,0.0,3.0,78,0.00,,,0.00,VWS V15.00,2017-12-16 07:49:00,
2017-12-16 02:54:00,31.5,25.4,30.11,SSE,148,2.0,5.0,78,0.00,,,0.00,VWS V15.00,2017-12-16 07:54:00,
2017-12-16 02:55:00,31.5,25.4,30.11,South,171,2.0,5.0,78,0.00,,,0.00,VWS V15.00,2017-12-16 07:55:00,
2017-12-16 03:00:00,31.6,25.5,30.11,South,179,2.0,4.0,78,0.00,,,0.00,VWS V15.00,2017-12-16 08:00:00,
2017-12-16 03:02:00,31.6,25.5,30.11,South,191,2.0,4.0,78,0.00,,,0.00,VWS V15.00,2017-12-16 08:02:00,
2017-12-16 03:07:00,31.6,25.5,30.12,SSW,210,3.0,5.0,78,0.00,,,0.00,VWS V15.00,2017-12-16 08:07:00,
2017-12-16 03:10:00,31.6,25.5,30.12,SW,233,2.0,4.0,78,0.00,,,0.00,VWS V15.00,2017-12-16 08:10:00,
2017-12-16 03:15:00,31.6,25.5,30.12,SW,226,2.0,5.0,78,0.00,,,0.00,VWS V15.00,2017-12-16 08:15:00,
2017-12-16 03:20:00,31.7,25.6,30.12,SSW,201,2.0,4.0,78,0.00,,,0.00,VWS V15.00,2017-12-16 08:20:00,
2017-12-16 03:25:00,31.7,25.3,30.12,South,184,2.0,4.0,77,0.00,,,0.00,VWS V15.00,2017-12-16 08:25:00,
2017-12-16 03:30:00,31.8,25.4,30.11,SSW,211,3.0,3.0,77,0.00,,,0.00,VWS V15.00,2017-12-16 08:30:00,
2017-12-16 03:35:00,31.8,25.4,30.11,SSW,195,2.0,3.0,77,0.00,,,0.00,VWS V15.00,2017-12-16 08:35:00,
2017-12-16 03:40:00,31.8,25.4,30.11,SSW,194,2.0,4.0,77,0.00,,,0.00,VWS V15.00,2017-12-16 08:40:00,
2017-12-16 03:44:00,31.9,25.5,30.12,South,179,1.0,4.0,77,0.00,,,0.00,VWS V15.00,2017-12-16 08:44:00,
2017-12-16 03:49:00,31.9,25.8,30.11,South,175,1.0,2.0,78,0.00,,,0.00,VWS V15.00,2017-12-16 08:49:00,
2017-12-16 03:50:00,31.9,25.8,30.11,South,175,1.0,2.0,78,0.00,,,0.00,VWS V15.00,2017-12-16 08:50:00,
2017-12-16 03:55:00,31.9,25.8,30.11,SSW,198,1.0,4.0,78,0.00,,,0.00,VWS V15.00,2017-12-16 08:55:00,
2017-12-16 04:00:00,32.1,26.0,30.11,South,180,1.0,3.0,78,0.00,,,0.00,VWS V15.00,2017-12-16 09:00:00,
2017-12-16 04:01:00,32.1,26.0,30.11,South,180,2.0,3.0,78,0.00,,,0.00,VWS V15.00,2017-12-16 09:01:00,
2017-12-16 04:02:00,32.1,25.7,30.11,South,185,2.0,3.0,77,0.00,,,0.00,VWS V15.00,2017-12-16 09:02:00,
2017-12-16 04:07:00,32.1,25.7,30.11,South,184,2.0,3.0,77,0.00,,,0.00,VWS V15.00,2017-12-16 09:07:00,
2017-12-16 04:12:00,32.3,25.9,30.11,South,180,1.0,5.0,77,0.00,,,0.00,VWS V15.00,2017-12-16 09:12:00,
2017-12-16 04:13:00,32.3,25.9,30.11,SSW,197,3.0,5.0,77,0.00,,,0.00,VWS V15.00,2017-12-16 09:13:00,
2017-12-16 04:18:00,32.4,26.0,30.11,South,171,4.0,4.0,77,0.00,,,0.00,VWS V15.00,2017-12-16 09:18:00,
2017-12-16 04:23:00,32.5,26.1,30.11,SSW,207,0.0,4.0,77,0.00,,,0.00,VWS V15.00,2017-12-16 09:23:00,
2017-12-16 04:28:00,32.6,26.2,30.10,South,169,2.0,4.0,77,0.00,,,0.00,VWS V15.00,2017-12-16 09:28:00,
2017-12-16 04:33:00,32.6,26.2,30.10,SSW,198,1.0,5.0,77,0.00,,,0.00,VWS V15.00,2017-12-16 09:33:00,
2017-12-16 04:37:00,32.6,26.2,30.10,SSE,166,2.0,5.0,77,0.00,,,0.00,VWS V15.00,2017-12-16 09:37:00,
2017-12-16 04:38:00,32.7,26.3,30.10,South,182,2.0,2.0,77,0.00,,,0.00,VWS V15.00,2017-12-16 09:38:00,
2017-12-16 04:42:00,32.7,26.3,30.09,South,175,2.0,4.0,77,0.00,,,0.00,VWS V15.00,2017-12-16 09:42:00,
2017-12-16 04:47:00,32.7,26.3,30.09,South,188,2.0,4.0,77,0.00,,,0.00,VWS V15.00,2017-12-16 09:47:00,
2017-12-16 04:52:00,32.8,26.4,30.09,SSW,199,1.0,5.0,77,0.00,,,0.00,VWS V15.00,2017-12-16 09:52:00,
2017-12-16 04:57:00,32.9,26.5,30.09,South,172,2.0,5.0,77,0.00,,,0.00,VWS V15.00,2017-12-16 09:57:00,
2017-12-16 04:58:00,32.9,26.5,30.08,South,182,3.0,4.0,77,0.00,,,0.00,VWS V15.00,2017-12-16 09:58:00,
2017-12-16 05:03:00,33.1,26.7,30.08,SSW,213,4.0,4.0,77,0.00,,,0.00,VWS V15.00,2017-12-16 10:03:00,
2017-12-16 05:08:00,33.2,26.8,30.08,South,169,2.0,2.0,77,0.00,,,0.00,VWS V15.00,2017-12-16 10:08:00,
2017-12-16 05:11:00,33.3,26.9,30.08,SSW,193,3.0,6.0,77,0.00,,,0.00,VWS V15.00,2017-12-16 10:11:00,
2017-12-16 05:13:00,33.4,27.0,30.08,SSW,199,6.0,6.0,77,0.00,,,0.00,VWS V15.00,2017-12-16 10:13:00,
2017-12-16 05:18:00,33.6,26.9,30.09,SSW,193,1.0,4.0,76,0.00,,,0.00,VWS V15.00,2017-12-16 10:18:00,
2017-12-16 05:20:00,33.6,26.9,30.09,SW,236,6.0,7.0,76,0.00,,,0.00,VWS V15.00,2017-12-16 10:20:00,
2017-12-16 05:23:00,33.8,27.0,30.09,SSW,209,2.0,7.0,76,0.00,,,0.00,VWS V15.00,2017-12-16 10:23:00,
2017-12-16 05:28:00,33.9,27.1,30.09,West,265,5.0,7.0,76,0.00,,,0.00,VWS V15.00,2017-12-16 10:28:00,
2017-12-16 05:31:00,34.0,27.2,30.09,SW,227,4.0,10.0,76,0.00,,,0.00,VWS V15.00,2017-12-16 10:31:00,
2017-12-16 05:36:00,34.1,27.0,30.10,WNW,288,3.0,10.0,75,0.00,,,0.00,VWS V15.00,2017-12-16 10:36:00,
2017-12-16 05:39:00,34.1,27.0,30.10,South,182,2.0,6.0,75,0.00,,,0.00,VWS V15.00,2017-12-16 10:39:00,
2017-12-16 05:42:00,34.0,26.9,30.10,SSW,194,2.0,6.0,75,0.00,,,0.00,VWS V15.00,2017-12-16 10:42:00,
2017-12-16 05:47:00,34.0,26.9,30.10,South,182,4.0,7.0,75,0.00,,,0.00,VWS V15.00,2017-12-16 10:47:00,
2017-12-16 05:49:00,34.0,26.9,30.10,WSW,239,3.0,4.0,75,0.00,,,0.00,VWS V15.00,2017-12-16 10:49:00,
2017-12-16 05:54:00,33.9,26.8,30.10,SW,219,6.0,8.0,75,0.00,,,0.00,VWS V15.00,2017-12-16 10:54:00,
2017-12-16 05:55:00,33.9,26.8,30.10,South,189,2.0,8.0,75,0.00,,,0.00,VWS V15.00,2017-12-16 10:55:00,
2017-12-16 06:00:00,33.8,27.0,30.10,SSW,210,3.0,5.0,76,0.00,,,0.00,VWS V15.00,2017-12-16 11:00:00,
2017-12-16 06:05:00,33.7,27.0,30.10,SW,220,2.0,5.0,76,0.00,,,0.00,VWS V15.00,2017-12-16 11:05:00,
2017-12-16 06:08:00,33.5,26.8,30.10,SSW,204,3.0,4.0,76,0.00,,,0.00,VWS V15.00,2017-12-16 11:08:00,
2017-12-16 06:09:00,33.5,26.8,30.10,SW,220,2.0,4.0,76,0.00,,,0.00,VWS V15.00,2017-12-16 11:09:00,
2017-12-16 06:14:00,33.4,26.7,30.10,SSW,196,3.0,7.0,76,0.00,,,0.00,VWS V15.00,2017-12-16 11:14:00,
2017-12-16 06:19:00,33.4,26.7,30.10,SSW,196,4.0,5.0,76,0.00,,,0.00,VWS V15.00,2017-12-16 11:19:00,
2017-12-16 06:24:00,33.4,26.7,30.10,South,191,3.0,7.0,76,0.00,,,0.00,VWS V15.00,2017-12-16 11:24:00,
2017-12-16 06:27:00,33.3,26.6,30.10,SSW,195,3.0,7.0,76,0.00,,,0.00,VWS V15.00,2017-12-16 11:27:00,
2017-12-16 06:32:00,33.2,26.8,30.10,SW,225,4.0,8.0,77,0.00,,,0.00,VWS V15.00,2017-12-16 11:32:00,
2017-12-16 06:36:00,33.2,26.8,30.10,SSW,213,1.0,8.0,77,0.00,,,0.00,VWS V15.00,2017-12-16 11:36:00,
2017-12-16 06:41:00,33.1,26.7,30.10,SSW,195,5.0,6.0,77,0.00,,,0.00,VWS V15.00,2017-12-16 11:41:00,
2017-12-16 06:46:00,32.9,26.5,30.10,SSW,192,1.0,6.0,77,0.00,,,0.00,VWS V15.00,2017-12-16 11:46:00,
2017-12-16 06:51:00,32.8,26.4,30.10,SSW,203,3.0,6.0,77,0.00,,,0.00,VWS V15.00,2017-12-16 11:51:00,
2017-12-16 06:52:00,32.8,26.4,30.10,South,181,2.0,6.0,77,0.00,,,0.00,VWS V15.00,2017-12-16 11:52:00,
2017-12-16 06:57:00,32.7,26.6,30.10,South,189,3.0,6.0,78,0.00,,,0.00,VWS V15.00,2017-12-16 11:57:00,
2017-12-16 06:58:00,32.7,26.6,30.10,South,189,3.0,6.0,78,0.00,,,0.00,VWS V15.00,2017-12-16 11:58:00,
2017-12-16 06:59:00,32.6,26.5,30.10,SSW,195,3.0,5.0,78,0.00,,,0.00,VWS V15.00,2017-12-16 11:59:00,
2017-12-16 07:04:00,32.6,26.5,30.10,SW,215,3.0,5.0,78,0.00,,,0.00,VWS V15.00,2017-12-16 12:04:00,
2017-12-16 07:05:00,32.6,26.5,30.10,South,184,2.0,5.0,78,0.00,,,0.00,VWS V15.00,2017-12-16 12:05:00,
2017-12-16 07:07:00,32.5,26.4,30.10,SSW,200,1.0,5.0,78,0.00,,,0.00,VWS V15.00,2017-12-16 12:07:00,
2017-12-16 07:12:00,32.5,26.4,30.10,SW,216,4.0,7.0,78,0.00,,,0.00,VWS V15.00,2017-12-16 12:12:00,
2017-12-16 07:13:00,32.5,26.4,30.10,South,176,4.0,7.0,78,0.00,,,0.00,VWS V15.00,2017-12-16 12:13:00,
2017-12-16 07:14:00,32.5,26.4,30.10,SSW,192,2.0,7.0,78,0.00,,,0.00,VWS V15.00,2017-12-16 12:14:00,
2017-12-16 07:19:00,32.4,26.6,30.10,SSW,199,4.0,7.0,79,0.00,,,0.00,VWS V15.00,2017-12-16 12:19:00,
2017-12-16 07:24:00,32.4,26.6,30.10,WSW,256,5.0,7.0,79,0.00,,,0.00,VWS V15.00,2017-12-16 12:24:00,
2017-12-16 07:27:00,32.3,26.5,30.10,SSW,194,3.0,7.0,79,0.00,,,0.00,VWS V15.00,2017-12-16 12:27:00,
2017-12-16 07:32:00,32.3,26.5,30.10,SSW,194,3.0,6.0,79,0.00,,,0.00,VWS V15.00,2017-12-16 12:32:00,
2017-12-16 07:37:00,32.2,26.4,30.10,SSW,203,3.0,6.0,79,0.00,,,0.00,VWS V15.00,2017-12-16 12:37:00,
2017-12-16 07:39:00,32.1,26.3,30.10,SSW,200,3.0,5.0,79,0.00,,,0.00,VWS V15.00,2017-12-16 12:39:00,
2017-12-16 07:44:00,32.1,26.3,30.10,SSW,212,5.0,6.0,79,0.00,,,0.00,VWS V15.00,2017-12-16 12:44:00,
2017-12-16 07:46:00,32.1,26.3,30.10,SSW,196,3.0,6.0,79,0.00,,,0.00,VWS V15.00,2017-12-16 12:46:00,
2017-12-16 07:49:00,32.2,26.4,30.10,SW,214,4.0,6.0,79,0.00,,,0.00,VWS V15.00,2017-12-16 12:49:00,
2017-12-16 07:54:00,32.1,26.3,30.10,SSW,207,3.0,9.0,79,0.00,,,0.00,VWS V15.00,2017-12-16 12:54:00,
2017-12-16 07:56:00,32.1,26.3,30.10,SSW,200,2.0,9.0,79,0.00,,,0.00,VWS V15.00,2017-12-16 12:56:00,
2017-12-16 08:01:00,32.0,26.5,30.10,South,169,6.0,6.0,80,0.00,,,0.00,VWS V15.00,2017-12-16 13:01:00,
2017-12-16 08:06:00,32.1,26.6,30.10,South,189,5.0,10.0,80,0.00,,,0.00,VWS V15.00,2017-12-16 13:06:00,
2017-12-16 08:07:00,32.1,26.6,30.10,SSW,195,4.0,10.0,80,0.00,,,0.00,VWS V15.00,2017-12-16 13:07:00,
2017-12-16 08:13:00,32.1,26.6,30.09,WSW,246,4.0,6.0,80,0.00,,,0.00,VWS V15.00,2017-12-16 13:13:00,
2017-12-16 08:18:00,32.1,26.6,30.10,SSW,206,3.0,3.0,80,0.00,,,0.00,VWS V15.00,2017-12-16 13:18:00,
2017-12-16 08:19:00,32.1,26.6,30.09,South,178,4.0,8.0,80,0.00,,,0.00,VWS V15.00,2017-12-16 13:19:00,
2017-12-16 08:23:00,32.2,26.7,30.09,WSW,243,6.0,8.0,80,0.00,,,0.00,VWS V15.00,2017-12-16 13:23:00,
2017-12-16 08:28:00,32.4,26.6,30.09,SSW,203,3.0,4.0,79,0.00,,,0.00,VWS V15.00,2017-12-16 13:28:00,
2017-12-16 08:31:00,32.6,26.8,30.09,WSW,252,1.0,7.0,79,0.00,,,0.00,VWS V15.00,2017-12-16 13:31:00,
2017-12-16 08:36:00,32.7,26.9,30.09,West,263,5.0,8.0,79,0.00,,,0.00,VWS V15.00,2017-12-16 13:36:00,
2017-12-16 08:39:00,32.8,27.0,30.09,South,178,5.0,9.0,79,0.00,,,0.00,VWS V15.00,2017-12-16 13:39:00,
2017-12-16 08:41:00,32.8,27.0,30.09,WSW,250,3.0,9.0,79,0.00,,,0.00,VWS V15.00,2017-12-16 13:41:00,
2017-12-16 08:46:00,33.0,27.2,30.09,SSW,196,7.0,9.0,79,0.00,,,0.00,VWS V15.00,2017-12-16 13:46:00,
2017-12-16 08:52:00,33.1,27.0,30.09,SW,221,5.0,8.0,78,0.00,,,0.00,VWS V15.00,2017-12-16 13:52:00,
2017-12-16 08:53:00,33.2,27.1,30.09,SSW,205,3.0,8.0,78,0.00,,,0.00,VWS V15.00,2017-12-16 13:53:00,
2017-12-16 08:58:00,33.3,27.2,30.09,SW,217,2.0,6.0,78,0.00,,,0.00,VWS V15.00,2017-12-16 13:58:00,
2017-12-16 08:59:00,33.4,27.3,30.09,SSE,159,5.0,6.0,78,0.00,,,0.00,VWS V15.00,2017-12-16 13:59:00,
2017-12-16 09:05:00,33.6,27.5,30.09,South,191,2.0,9.0,78,0.00,,,0.00,VWS V15.00,2017-12-16 14:05:00,
2017-12-16 09:10:00,33.8,27.7,30.10,SSW,200,4.0,9.0,78,0.00,,,0.00,VWS V15.00,2017-12-16 14:10:00,
2017-12-16 09:15:00,34.0,27.6,30.10,SW,232,6.0,9.0,77,0.00,,,0.00,VWS V15.00,2017-12-16 14:15:00,
2017-12-16 09:17:00,34.0,27.6,30.10,SW,227,8.0,9.0,77,0.00,,,0.00,VWS V15.00,2017-12-16 14:17:00,
2017-12-16 09:18:00,34.0,27.6,30.10,WSW,243,2.0,4.0,77,0.00,,,0.00,VWS V15.00,2017-12-16 14:18:00,
2017-12-16 09:23:00,34.2,27.8,30.10,SW,225,3.0,8.0,77,0.00,,,0.00,VWS V15.00,2017-12-16 14:23:00,
2017-12-16 09:24:00,34.3,27.9,30.10,South,185,5.0,8.0,77,0.00,,,0.00,VWS V15.00,2017-12-16 14:24:00,
2017-12-16 09:25:00,34.3,27.9,30.11,SW,217,4.0,8.0,77,0.00,,,0.00,VWS V15.00,2017-12-16 14:25:00,
2017-12-16 09:30:00,34.5,28.0,30.11,SSE,163,5.0,8.0,77,0.00,,,0.00,VWS V15.00,2017-12-16 14:30:00,
2017-12-16 09:35:00,34.8,28.3,30.11,SW,223,5.0,10.0,77,0.00,,,0.00,VWS V15.00,2017-12-16 14:35:00,
2017-12-16 09:36:00,34.8,28.3,30.11,South,180,4.0,10.0,77,0.00,,,0.00,VWS V15.00,2017-12-16 14:36:00,
2017-12-16 09:41:00,34.9,28.1,30.11,SSW,204,4.0,10.0,76,0.00,,,0.00,VWS V15.00,2017-12-16 14:41:00,
2017-12-16 09:45:00,35.0,28.2,30.12,WSW,250,4.0,10.0,76,0.00,,,0.00,VWS V15.00,2017-12-16 14:45:00,
2017-12-16 09:50:00,35.3,28.5,30.11,South,186,3.0,6.0,76,0.00,,,0.00,VWS V15.00,2017-12-16 14:50:00,
2017-12-16 09:55:00,35.6,28.5,30.11,SSW,201,2.0,6.0,75,0.00,,,0.00,VWS V15.00,2017-12-16 14:55:00,
2017-12-16 09:56:00,35.6,28.5,30.11,SW,221,4.0,7.0,75,0.00,,,0.00,VWS V15.00,2017-12-16 14:56:00,